createdAt,value
2023-04-20T00:00:41.533Z,93.88
2023-04-20T00:01:43.342Z,93.98
2023-04-20T00:02:47.499Z,93.96
2023-04-20T00:03:49.598Z,93.93
2023-04-20T00:04:53.279Z,94.16
2023-04-20T00:05:55.162Z,93.55
2023-04-20T00:06:58.690Z,93.93
2023-04-20T00:08:01.164Z,93.56
2023-04-20T00:09:04.628Z,94.17
2023-04-20T00:10:08.809Z,94.17
2023-04-20T00:11:11.572Z,93.85
2023-04-20T00:12:13.354Z,93.93
2023-04-20T00:13:16.144Z,93.75
2023-04-20T00:14:18.841Z,94.07
2023-04-20T00:15:21.646Z,93.81
2023-04-20T00:16:23.511Z,94.15
2023-04-20T00:17:26.428Z,94.09
2023-04-20T00:18:29.579Z,94.06
2023-04-20T00:19:33.784Z,93.78
2023-04-20T00:20:35.913Z,93.69
2023-04-20T00:21:38.753Z,94.02
2023-04-20T00:22:40.692Z,94.08
2023-04-20T00:23:43.497Z,94.35
2023-04-20T00:24:45.310Z,94.41
2023-04-20T00:25:49.656Z,93.87
2023-04-20T00:26:51.462Z,94.40
2023-04-20T00:27:54.568Z,94.46
2023-04-20T00:28:56.525Z,94.00
2023-04-20T00:29:59.354Z,93.84
2023-04-20T00:31:01.621Z,94.05
2023-04-20T00:32:04.820Z,94.36
2023-04-20T00:33:06.627Z,94.25
2023-04-20T00:34:11.950Z,93.91
2023-04-20T00:35:13.900Z,93.83
2023-04-20T00:36:16.742Z,93.66
2023-04-20T00:37:18.516Z,93.86
2023-04-20T00:38:21.340Z,93.77
2023-04-20T00:39:23.153Z,94.09
2023-04-20T00:40:25.936Z,93.84
2023-04-20T00:41:27.871Z,93.82
2023-04-20T00:42:30.693Z,94.06
2023-04-20T00:43:32.547Z,93.97
2023-04-20T00:44:35.519Z,93.71
2023-04-20T00:45:37.469Z,93.99
2023-04-20T00:46:41.262Z,93.99
2023-04-20T00:47:43.511Z,94.04
2023-04-20T00:48:46.467Z,94.14
2023-04-20T00:49:49.822Z,94.28
2023-04-20T00:50:53.474Z,93.95
2023-04-20T00:51:55.623Z,94.47
2023-04-20T00:52:58.501Z,94.09
2023-04-20T00:54:00.601Z,94.41
2023-04-20T00:55:04.648Z,94.32
2023-04-20T00:56:07.408Z,94.09
2023-04-20T00:57:12.442Z,94.25
2023-04-20T00:58:14.278Z,93.70
2023-04-20T00:59:17.377Z,93.71
2023-04-20T01:00:21.360Z,93.78
2023-04-20T01:01:24.783Z,93.55
2023-04-20T01:02:27.966Z,93.61
2023-04-20T01:03:31.500Z,93.78
2023-04-20T01:04:36.159Z,93.71
2023-04-20T01:05:40.513Z,93.66
2023-04-20T01:06:42.754Z,93.22
2023-04-20T01:07:45.726Z,93.41
2023-04-20T01:08:48.913Z,93.05
2023-04-20T01:09:51.785Z,93.05
2023-04-20T01:10:54.119Z,93.13
2023-04-20T01:11:57.006Z,93.05
2023-04-20T01:12:59.621Z,92.78
2023-04-20T01:14:02.441Z,92.67
2023-04-20T01:15:08.098Z,92.52
2023-04-20T01:16:11.696Z,92.52
2023-04-20T01:17:15.040Z,92.68
2023-04-20T01:18:21.475Z,92.61
2023-04-20T01:19:23.948Z,92.31
2023-04-20T01:20:26.725Z,92.69
2023-04-20T01:21:31.067Z,92.60
2023-04-20T01:22:44.324Z,92.89
2023-04-20T01:23:48.908Z,92.66
2023-04-20T01:24:51.974Z,92.71
2023-04-20T01:25:55.877Z,92.67
2023-04-20T01:26:57.766Z,92.36
2023-04-20T01:28:02.050Z,92.64
2023-04-20T01:29:04.423Z,92.91
2023-04-20T01:30:08.434Z,92.65
2023-04-20T01:31:13.663Z,92.71
2023-04-20T01:32:16.845Z,92.49
2023-04-20T01:33:18.613Z,92.42
2023-04-20T01:34:21.430Z,92.34
2023-04-20T01:35:23.309Z,92.56
2023-04-20T01:36:26.077Z,92.57
2023-04-20T01:37:27.905Z,92.49
2023-04-20T01:38:34.513Z,92.42
2023-04-20T01:39:36.737Z,92.47
2023-04-20T01:40:40.269Z,92.51
2023-04-20T01:41:42.166Z,92.36
2023-04-20T01:42:44.949Z,92.07
2023-04-20T01:43:46.770Z,92.52
2023-04-20T01:44:49.763Z,92.06
2023-04-20T01:45:51.616Z,92.31
2023-04-20T01:46:54.775Z,92.15
2023-04-20T01:47:56.713Z,91.95
2023-04-20T01:48:59.531Z,92.16
2023-04-20T01:50:01.403Z,91.98
2023-04-20T01:51:04.515Z,91.95
2023-04-20T01:52:09.065Z,91.93
2023-04-20T01:53:13.634Z,92.07
2023-04-20T01:54:17.153Z,91.98
2023-04-20T01:55:20.749Z,91.93
2023-04-20T01:56:22.561Z,92.46
2023-04-20T01:57:25.697Z,92.04
2023-04-20T01:58:27.524Z,91.99
2023-04-20T01:59:30.712Z,92.12
2023-04-20T02:00:33.283Z,92.09
2023-04-20T02:01:36.127Z,91.81
2023-04-20T02:02:37.984Z,91.78
2023-04-20T02:03:41.250Z,91.87
2023-04-20T02:04:43.214Z,91.94
2023-04-20T02:05:46.600Z,91.69
2023-04-20T02:06:48.929Z,91.42
2023-04-20T02:07:51.818Z,91.08
2023-04-20T02:08:53.633Z,91.57
2023-04-20T02:09:58.026Z,91.23
2023-04-20T02:10:59.904Z,90.88
2023-04-20T02:12:03.208Z,91.35
2023-04-20T02:13:05.255Z,90.94
2023-04-20T02:14:08.192Z,91.45
2023-04-20T02:15:10.755Z,91.36
2023-04-20T02:16:14.023Z,91.08
2023-04-20T02:17:15.877Z,90.86
2023-04-20T02:18:18.781Z,91.12
2023-04-20T02:19:21.252Z,90.95
2023-04-20T02:20:24.276Z,91.14
2023-04-20T02:21:26.150Z,91.01
2023-04-20T02:22:29.423Z,91.47
2023-04-20T02:23:31.284Z,91.57
2023-04-20T02:24:34.816Z,91.84
2023-04-20T02:25:40.582Z,91.79
2023-04-20T02:26:42.628Z,91.83
2023-04-20T02:27:45.484Z,92.39
2023-04-20T02:28:47.642Z,92.32
2023-04-20T02:29:50.402Z,92.40
2023-04-20T02:30:52.219Z,92.51
2023-04-20T02:31:55.450Z,92.48
2023-04-20T02:32:57.293Z,92.48
2023-04-20T02:34:00.140Z,92.86
2023-04-20T02:35:03.949Z,92.50
2023-04-20T02:36:06.972Z,92.50
2023-04-20T02:37:08.804Z,92.21
2023-04-20T02:38:11.630Z,92.70
2023-04-20T02:39:14.203Z,92.22
2023-04-20T02:40:17.017Z,91.95
2023-04-20T02:41:20.505Z,92.16
2023-04-20T02:42:23.618Z,91.73
2023-04-20T02:43:25.756Z,91.71
2023-04-20T02:44:29.049Z,92.19
2023-04-20T02:45:31.163Z,92.10
2023-04-20T02:46:34.713Z,92.66
2023-04-20T02:47:36.808Z,92.42
2023-04-20T02:48:39.618Z,92.41
2023-04-20T02:49:41.479Z,92.04
2023-04-20T02:50:44.404Z,92.29
2023-04-20T02:51:51.609Z,92.01
2023-04-20T02:52:54.729Z,92.09
2023-04-20T02:53:56.583Z,92.06
2023-04-20T02:55:04.974Z,92.10
2023-04-20T02:56:07.544Z,92.43
2023-04-20T02:57:38.159Z,92.46
2023-04-20T02:58:40.415Z,92.04
2023-04-20T02:59:54.814Z,91.96
2023-04-20T03:01:02.113Z,92.27
2023-04-20T03:02:06.430Z,92.28
2023-04-20T03:03:10.101Z,92.31
2023-04-20T03:04:13.188Z,92.17
2023-04-20T03:05:23.003Z,92.84
2023-04-20T03:06:26.592Z,92.65
2023-04-20T03:07:30.906Z,92.21
2023-04-20T03:08:33.753Z,92.26
2023-04-20T03:09:48.206Z,91.82
2023-04-20T03:10:57.515Z,92.32
2023-04-20T03:12:02.536Z,91.69
2023-04-20T03:13:24.904Z,91.96
2023-04-20T03:14:33.525Z,92.08
2023-04-20T03:15:36.448Z,92.94
2023-04-20T03:16:47.368Z,92.78
2023-04-20T03:17:51.193Z,92.82
2023-04-20T03:18:53.499Z,92.80
2023-04-20T03:19:57.628Z,92.81
2023-04-20T03:20:59.605Z,92.77
2023-04-20T03:22:04.402Z,92.32
2023-04-20T03:23:07.249Z,92.56
2023-04-20T03:24:11.745Z,92.68
2023-04-20T03:25:14.947Z,92.93
2023-04-20T03:26:29.133Z,92.58
2023-04-20T03:27:53.103Z,92.65
2023-04-20T03:28:56.726Z,92.95
2023-04-20T03:30:01.795Z,92.89
2023-04-20T03:31:06.452Z,92.53
2023-04-20T03:32:09.392Z,92.84
2023-04-20T03:33:11.803Z,92.65
2023-04-20T03:34:14.810Z,92.70
2023-04-20T03:35:18.023Z,92.72
2023-04-20T03:36:20.877Z,92.67
2023-04-20T03:37:22.714Z,92.33
2023-04-20T03:38:28.611Z,92.46
2023-04-20T03:39:30.406Z,92.66
2023-04-20T03:40:33.208Z,92.31
2023-04-20T03:41:35.112Z,92.70
2023-04-20T03:42:38.219Z,92.51
2023-04-20T03:43:41.659Z,92.18
2023-04-20T03:44:46.861Z,92.51
2023-04-20T03:45:49.860Z,92.59
2023-04-20T03:46:53.861Z,92.51
2023-04-20T03:47:55.775Z,92.15
2023-04-20T03:48:58.654Z,92.04
2023-04-20T03:50:00.430Z,92.33
2023-04-20T03:51:03.349Z,92.23
2023-04-20T03:52:07.229Z,92.17
2023-04-20T03:53:10.055Z,92.42
2023-04-20T03:54:12.533Z,92.31
2023-04-20T03:55:15.773Z,92.34
2023-04-20T03:56:23.928Z,91.94
2023-04-20T03:57:27.031Z,91.88
2023-04-20T03:58:30.950Z,92.14
2023-04-20T03:59:47.977Z,92.01
2023-04-20T04:00:53.554Z,91.82
2023-04-20T04:01:57.177Z,92.30
2023-04-20T04:02:59.260Z,92.20
2023-04-20T04:04:04.596Z,92.27
2023-04-20T04:05:08.110Z,91.81
2023-04-20T04:06:11.562Z,92.00
2023-04-20T04:07:14.047Z,92.02
2023-04-20T04:08:18.594Z,91.96
2023-04-20T04:09:20.663Z,92.28
2023-04-20T04:10:23.628Z,92.17
2023-04-20T04:11:26.064Z,91.93
2023-04-20T04:12:29.091Z,92.27
2023-04-20T04:13:33.775Z,92.37
2023-04-20T04:14:37.861Z,92.61
2023-04-20T04:15:41.460Z,92.47
2023-04-20T04:16:48.563Z,92.47
2023-04-20T04:17:51.042Z,92.49
2023-04-20T04:18:53.954Z,92.53
2023-04-20T04:19:56.082Z,92.61
2023-04-20T04:20:59.011Z,92.62
2023-04-20T04:22:00.935Z,92.50
2023-04-20T04:23:07.551Z,92.58
2023-04-20T04:24:33.316Z,92.58
2023-04-20T04:25:43.119Z,92.95
2023-04-20T04:26:47.358Z,92.35
2023-04-20T04:27:51.073Z,92.70
2023-04-20T04:28:55.656Z,92.96
2023-04-20T04:29:57.669Z,92.52
2023-04-20T04:31:05.890Z,92.72
2023-04-20T04:32:09.610Z,92.77
2023-04-20T04:33:14.757Z,92.82
2023-04-20T04:34:20.408Z,92.98
2023-04-20T04:35:27.348Z,92.94
2023-04-20T04:36:33.574Z,92.85
2023-04-20T04:37:37.087Z,92.64
2023-04-20T04:38:41.579Z,92.62
2023-04-20T04:39:44.762Z,92.55
2023-04-20T04:40:56.404Z,92.62
2023-04-20T04:41:59.599Z,92.23
2023-04-20T04:43:10.039Z,92.32
2023-04-20T04:44:15.504Z,91.65
2023-04-20T04:45:18.544Z,91.68
2023-04-20T04:46:25.476Z,91.70
2023-04-20T04:47:29.772Z,91.80
2023-04-20T04:48:33.195Z,91.41
2023-04-20T04:49:35.842Z,91.65
2023-04-20T04:50:39.053Z,91.50
2023-04-20T04:51:41.423Z,91.50
2023-04-20T04:52:44.287Z,91.44
2023-04-20T04:53:47.468Z,91.44
2023-04-20T04:54:50.806Z,91.26
2023-04-20T04:55:52.720Z,91.03
2023-04-20T04:56:55.671Z,91.21
2023-04-20T04:57:57.627Z,91.08
2023-04-20T04:59:00.491Z,91.07
2023-04-20T05:00:02.405Z,90.99
2023-04-20T05:01:06.447Z,91.02
2023-04-20T05:02:09.773Z,90.51
2023-04-20T05:03:12.811Z,90.77
2023-04-20T05:04:15.032Z,90.57
2023-04-20T05:05:18.417Z,90.48
2023-04-20T05:06:21.538Z,90.44
2023-04-20T05:07:24.729Z,90.47
2023-04-20T05:08:27.478Z,90.19
2023-04-20T05:09:33.430Z,90.38
2023-04-20T05:10:36.307Z,89.93
2023-04-20T05:11:38.200Z,89.77
2023-04-20T05:12:40.977Z,89.59
2023-04-20T05:13:42.968Z,88.92
2023-04-20T05:14:45.779Z,89.07
2023-04-20T05:15:47.923Z,88.82
2023-04-20T05:16:51.867Z,88.95
2023-04-20T05:17:55.997Z,89.13
2023-04-20T05:18:57.870Z,88.78
2023-04-20T05:20:00.829Z,88.83
2023-04-20T05:21:02.675Z,89.00
2023-04-20T05:22:06.060Z,89.13
2023-04-20T05:23:08.341Z,89.16
2023-04-20T05:24:11.219Z,89.03
2023-04-20T05:25:13.992Z,88.81
2023-04-20T05:26:18.183Z,88.98
2023-04-20T05:27:20.040Z,89.07
2023-04-20T05:28:22.834Z,89.27
2023-04-20T05:29:25.044Z,89.39
2023-04-20T05:30:27.842Z,89.74
2023-04-20T05:31:30.873Z,89.68
2023-04-20T05:32:33.871Z,89.66
2023-04-20T05:33:37.046Z,89.44
2023-04-20T05:34:39.806Z,89.49
2023-04-20T05:35:41.679Z,89.22
2023-04-20T05:36:44.456Z,89.60
2023-04-20T05:37:47.688Z,89.25
2023-04-20T05:38:50.743Z,89.49
2023-04-20T05:39:52.540Z,89.52
2023-04-20T05:40:57.049Z,89.48
2023-04-20T05:42:00.052Z,89.65
2023-04-20T05:43:03.099Z,89.31
2023-04-20T05:44:05.241Z,89.41
2023-04-20T05:45:09.507Z,89.26
2023-04-20T05:46:11.383Z,89.29
2023-04-20T05:47:14.289Z,89.77
2023-04-20T05:48:16.204Z,89.45
2023-04-20T05:49:20.386Z,89.66
2023-04-20T05:50:22.836Z,90.00
2023-04-20T05:51:28.997Z,89.40
2023-04-20T05:52:30.827Z,89.75
2023-04-20T05:53:33.877Z,89.54
2023-04-20T05:54:35.668Z,89.35
2023-04-20T05:55:38.416Z,90.29
2023-04-20T05:56:40.518Z,90.29
2023-04-20T05:57:43.559Z,90.23
2023-04-20T05:58:45.635Z,90.32
2023-04-20T05:59:48.417Z,89.07
2023-04-20T06:00:50.774Z,88.88
2023-04-20T06:01:53.655Z,88.54
2023-04-20T06:02:55.731Z,87.45
2023-04-20T06:03:58.984Z,88.29
2023-04-20T06:05:02.576Z,87.71
2023-04-20T06:06:05.881Z,87.10
2023-04-20T06:07:07.779Z,86.28
2023-04-20T06:08:11.451Z,87.77
2023-04-20T06:09:13.396Z,87.59
2023-04-20T06:10:16.635Z,87.11
2023-04-20T06:11:18.398Z,86.48
2023-04-20T06:12:21.186Z,86.00
2023-04-20T06:13:23.212Z,84.44
2023-04-20T06:14:26.085Z,83.91
2023-04-20T06:15:28.983Z,83.10
2023-04-20T06:16:30.929Z,83.25
2023-04-20T06:17:36.151Z,82.38
2023-04-20T06:18:38.004Z,83.65
2023-04-20T06:19:40.968Z,83.23
2023-04-20T06:20:44.700Z,82.38
2023-04-20T06:21:47.489Z,81.90
2023-04-20T06:22:50.045Z,82.38
2023-04-20T06:23:52.833Z,81.58
2023-04-20T06:24:55.087Z,81.30
2023-04-20T06:25:57.886Z,81.48
2023-04-20T06:26:59.711Z,81.47
2023-04-20T06:28:02.789Z,81.21
2023-04-20T06:29:04.820Z,79.95
2023-04-20T06:30:09.723Z,80.13
2023-04-20T06:31:12.826Z,80.27
2023-04-20T06:32:14.650Z,79.64
2023-04-20T06:33:17.938Z,79.40
2023-04-20T06:34:19.777Z,79.27
2023-04-20T06:35:23.460Z,78.93
2023-04-20T06:36:27.729Z,78.19
2023-04-20T06:37:30.480Z,78.58
2023-04-20T06:38:33.598Z,77.49
2023-04-20T06:39:35.658Z,77.46
2023-04-20T06:40:38.490Z,77.23
2023-04-20T06:41:40.742Z,76.92
2023-04-20T06:42:43.601Z,76.19
2023-04-20T06:43:46.378Z,76.44
2023-04-20T06:44:48.287Z,75.44
2023-04-20T06:45:51.334Z,75.27
2023-04-20T06:46:53.189Z,74.84
2023-04-20T06:47:56.467Z,74.35
2023-04-20T06:48:59.142Z,75.73
2023-04-20T06:50:02.765Z,76.08
2023-04-20T06:51:05.813Z,76.50
2023-04-20T06:52:09.024Z,75.91
2023-04-20T06:53:11.781Z,75.20
2023-04-20T06:54:13.767Z,74.67
2023-04-20T06:55:16.542Z,74.28
2023-04-20T06:56:18.380Z,73.76
2023-04-20T06:57:21.405Z,74.00
2023-04-20T06:58:23.228Z,73.63
2023-04-20T06:59:26.023Z,73.40
2023-04-20T07:00:29.270Z,73.48
2023-04-20T07:01:31.312Z,73.15
2023-04-20T07:02:44.274Z,70.77
2023-04-20T07:03:47.616Z,71.82
2023-04-20T07:04:49.551Z,71.80
2023-04-20T07:05:52.348Z,71.59
2023-04-20T07:06:54.611Z,71.43
2023-04-20T07:07:58.809Z,71.96
2023-04-20T07:09:01.726Z,71.18
2023-04-20T07:10:03.916Z,71.23
2023-04-20T07:11:06.898Z,71.44
2023-04-20T07:12:09.705Z,71.51
2023-04-20T07:13:16.115Z,71.00
2023-04-20T07:14:17.914Z,70.10
2023-04-20T07:15:20.835Z,70.38
2023-04-20T07:16:22.700Z,69.15
2023-04-20T07:17:29.307Z,68.86
2023-04-20T07:18:34.673Z,67.87
2023-04-20T07:19:37.251Z,68.28
2023-04-20T07:20:40.158Z,68.53
2023-04-20T07:21:42.089Z,68.39
2023-04-20T07:22:45.043Z,67.43
2023-04-20T07:23:48.403Z,67.75
2023-04-20T07:24:51.624Z,66.96
2023-04-20T07:25:53.527Z,66.96
2023-04-20T07:26:57.184Z,66.75
2023-04-20T07:28:00.013Z,66.45
2023-04-20T07:29:02.294Z,65.97
2023-04-20T07:30:06.400Z,66.12
2023-04-20T07:31:09.177Z,66.16
2023-04-20T07:32:11.403Z,66.05
2023-04-20T07:33:14.494Z,66.83
2023-04-20T07:34:16.773Z,65.85
2023-04-20T07:35:19.647Z,65.66
2023-04-20T07:36:22.509Z,66.00
2023-04-20T07:37:27.190Z,66.48
2023-04-20T07:38:29.628Z,66.58
2023-04-20T07:39:33.730Z,66.31
2023-04-20T07:40:35.553Z,65.97
2023-04-20T07:41:38.393Z,64.76
2023-04-20T07:42:40.408Z,64.71
2023-04-20T07:43:44.706Z,64.87
2023-04-20T07:44:47.576Z,65.75
2023-04-20T07:45:50.348Z,65.96
2023-04-20T07:46:52.172Z,65.83
2023-04-20T07:47:55.651Z,65.61
2023-04-20T07:48:57.593Z,66.21
2023-04-20T07:50:00.460Z,65.74
2023-04-20T07:51:03.424Z,65.79
2023-04-20T07:52:15.853Z,65.53
2023-04-20T07:53:19.539Z,64.86
2023-04-20T07:54:21.425Z,64.62
2023-04-20T07:55:25.757Z,64.31
2023-04-20T07:56:27.537Z,64.38
2023-04-20T07:57:30.668Z,63.92
2023-04-20T07:58:32.479Z,63.57
2023-04-20T07:59:35.272Z,63.60
2023-04-20T08:00:38.097Z,63.79
2023-04-20T08:01:39.881Z,63.29
2023-04-20T08:02:42.855Z,63.52
2023-04-20T08:03:46.000Z,63.40
2023-04-20T08:04:49.055Z,63.30
2023-04-20T08:05:52.084Z,63.64
2023-04-20T08:06:54.032Z,63.99
2023-04-20T08:07:56.794Z,64.24
2023-04-20T08:08:59.586Z,63.76
2023-04-20T08:10:03.358Z,64.84
2023-04-20T08:11:08.103Z,64.71
2023-04-20T08:12:11.014Z,64.70
2023-04-20T08:13:13.834Z,64.54
2023-04-20T08:14:16.327Z,64.17
2023-04-20T08:15:19.672Z,64.48
2023-04-20T08:16:22.953Z,64.38
2023-04-20T08:17:25.830Z,64.77
2023-04-20T08:18:30.386Z,64.65
2023-04-20T08:19:32.289Z,64.24
2023-04-20T08:20:35.303Z,64.34
2023-04-20T08:21:37.424Z,63.98
2023-04-20T08:22:40.774Z,63.37
2023-04-20T08:23:43.639Z,63.26
2023-04-20T08:24:45.583Z,63.09
2023-04-20T08:25:48.438Z,62.87
2023-04-20T08:26:51.587Z,62.64
2023-04-20T08:27:54.370Z,62.65
2023-04-20T08:28:56.425Z,62.29
2023-04-20T08:29:59.256Z,61.74
2023-04-20T08:31:01.273Z,61.91
2023-04-20T08:32:04.444Z,61.83
2023-04-20T08:33:07.427Z,61.96
2023-04-20T08:34:09.268Z,61.75
2023-04-20T08:35:13.490Z,61.55
2023-04-20T08:36:16.476Z,61.61
2023-04-20T08:37:19.511Z,61.22
2023-04-20T08:38:30.804Z,62.19
2023-04-20T08:39:36.529Z,62.33
2023-04-20T08:40:39.324Z,62.37
2023-04-20T08:41:41.345Z,61.84
2023-04-20T08:42:45.494Z,61.61
2023-04-20T08:43:50.003Z,61.88
2023-04-20T08:44:53.828Z,61.06
2023-04-20T08:45:58.626Z,60.30
2023-04-20T08:47:01.566Z,59.83
2023-04-20T08:48:06.602Z,58.73
2023-04-20T08:49:13.143Z,58.45
2023-04-20T08:50:16.984Z,58.34
2023-04-20T08:51:19.877Z,58.27
2023-04-20T08:52:21.729Z,58.27
2023-04-20T08:53:24.584Z,58.11
2023-04-20T08:54:27.482Z,58.09
2023-04-20T08:55:29.473Z,57.91
2023-04-20T08:56:36.970Z,57.94
2023-04-20T08:57:38.944Z,57.59
2023-04-20T08:58:43.167Z,57.46
2023-04-20T08:59:45.976Z,57.09
2023-04-20T09:00:48.438Z,57.04
2023-04-20T09:01:51.435Z,56.43
2023-04-20T09:02:55.120Z,56.83
2023-04-20T09:03:58.148Z,57.38
2023-04-20T09:05:04.727Z,57.41
2023-04-20T09:06:14.825Z,57.66
2023-04-20T09:07:22.310Z,57.08
2023-04-20T09:08:35.731Z,57.95
2023-04-20T09:09:38.718Z,57.77
2023-04-20T09:10:42.547Z,57.88
2023-04-20T09:11:45.832Z,57.79
2023-04-20T09:12:47.675Z,57.33
2023-04-20T09:14:02.761Z,56.19
2023-04-20T09:15:06.086Z,57.63
2023-04-20T09:16:12.661Z,56.86
2023-04-20T09:17:17.673Z,55.92
2023-04-20T09:18:20.668Z,55.65
2023-04-20T09:19:25.088Z,55.92
2023-04-20T09:20:31.579Z,56.69
2023-04-20T09:21:34.452Z,55.97
2023-04-20T09:22:37.147Z,54.87
2023-04-20T09:23:41.632Z,54.51
2023-04-20T09:24:43.487Z,54.34
2023-04-20T09:25:52.334Z,54.15
2023-04-20T09:26:54.210Z,54.24
2023-04-20T09:27:58.402Z,53.30
2023-04-20T09:29:03.115Z,54.07
2023-04-20T09:30:07.839Z,53.68
2023-04-20T09:31:19.125Z,53.51
2023-04-20T09:32:22.658Z,53.66
2023-04-20T09:33:29.363Z,53.70
2023-04-20T09:34:32.153Z,53.78
2023-04-20T09:35:34.172Z,53.78
2023-04-20T09:36:38.862Z,53.70
2023-04-20T09:37:47.843Z,54.22
2023-04-20T09:39:03.801Z,54.62
2023-04-20T09:40:08.719Z,54.48
2023-04-20T09:41:10.810Z,54.83
2023-04-20T09:42:15.041Z,54.69
2023-04-20T09:43:19.054Z,54.37
2023-04-20T09:44:23.197Z,54.71
2023-04-20T09:45:25.648Z,54.84
2023-04-20T09:46:31.378Z,54.23
2023-04-20T09:47:35.300Z,54.15
2023-04-20T09:48:38.130Z,53.51
2023-04-20T09:49:40.952Z,53.72
2023-04-20T09:50:49.762Z,52.75
2023-04-20T09:51:54.455Z,53.17
2023-04-20T09:52:56.871Z,53.17
2023-04-20T09:54:01.262Z,53.70
2023-04-20T09:55:03.269Z,53.35
2023-04-20T09:56:06.915Z,52.99
2023-04-20T09:57:11.315Z,52.65
2023-04-20T09:58:13.672Z,52.75
2023-04-20T09:59:18.397Z,52.30
2023-04-20T10:00:23.157Z,51.97
2023-04-20T10:01:26.188Z,51.84
2023-04-20T10:02:28.332Z,51.37
2023-04-20T10:03:31.345Z,51.50
2023-04-20T10:04:34.318Z,51.23
2023-04-20T10:05:37.220Z,51.36
2023-04-20T10:06:40.053Z,51.66
2023-04-20T10:07:42.915Z,52.22
2023-04-20T10:08:44.796Z,52.83
2023-04-20T10:09:47.611Z,53.02
2023-04-20T10:10:50.559Z,52.84
2023-04-20T10:11:55.711Z,52.98
2023-04-20T10:13:01.729Z,52.96
2023-04-20T10:14:15.602Z,52.36
2023-04-20T10:15:19.179Z,52.90
2023-04-20T10:16:22.391Z,52.75
2023-04-20T10:17:31.199Z,52.56
2023-04-20T10:18:34.302Z,53.11
2023-04-20T10:19:37.879Z,53.49
2023-04-20T10:20:40.977Z,53.48
2023-04-20T10:21:48.008Z,53.35
2023-04-20T10:22:51.298Z,52.71
2023-04-20T10:23:54.698Z,53.41
2023-04-20T10:24:56.591Z,53.11
2023-04-20T10:26:00.928Z,53.72
2023-04-20T10:27:04.177Z,53.72
2023-04-20T10:28:09.713Z,53.80
2023-04-20T10:29:13.410Z,53.98
2023-04-20T10:30:16.591Z,54.09
2023-04-20T10:31:20.785Z,54.18
2023-04-20T10:32:24.887Z,54.75
2023-04-20T10:33:28.201Z,54.81
2023-04-20T10:34:31.485Z,55.02
2023-04-20T10:35:46.020Z,54.61
2023-04-20T10:36:48.592Z,54.30
2023-04-20T10:37:52.517Z,54.29
2023-04-20T10:38:54.771Z,54.51
2023-04-20T10:39:57.573Z,55.05
2023-04-20T10:41:07.446Z,54.21
2023-04-20T10:42:09.710Z,54.55
2023-04-20T10:43:22.387Z,53.66
2023-04-20T10:44:25.351Z,53.85
2023-04-20T10:45:34.445Z,54.07
2023-04-20T10:46:37.345Z,53.84
2023-04-20T10:47:40.982Z,53.51
2023-04-20T10:48:54.161Z,52.51
2023-04-20T10:50:07.705Z,52.60
2023-04-20T10:51:10.134Z,52.75
2023-04-20T10:52:12.898Z,52.60
2023-04-20T10:53:19.218Z,52.36
2023-04-20T10:54:22.053Z,52.31
2023-04-20T10:55:26.469Z,52.46
2023-04-20T10:56:28.295Z,52.05
2023-04-20T10:57:31.562Z,52.50
2023-04-20T10:58:33.438Z,52.25
2023-04-20T10:59:37.250Z,52.32
2023-04-20T11:00:40.073Z,52.32
2023-04-20T11:01:42.701Z,52.26
2023-04-20T11:02:53.965Z,52.11
2023-04-20T11:03:56.210Z,52.45
2023-04-20T11:05:01.225Z,52.79
2023-04-20T11:06:04.111Z,52.62
2023-04-20T11:07:08.728Z,52.85
2023-04-20T11:08:10.548Z,52.83
2023-04-20T11:09:20.733Z,53.09
2023-04-20T11:10:26.886Z,53.20
2023-04-20T11:11:28.686Z,53.62
2023-04-20T11:12:39.737Z,53.76
2023-04-20T11:13:41.574Z,53.79
2023-04-20T11:14:52.864Z,54.07
2023-04-20T11:15:54.745Z,54.49
2023-04-20T11:16:57.895Z,54.75
2023-04-20T11:18:09.015Z,54.80
2023-04-20T11:19:11.965Z,54.78
2023-04-20T11:20:17.015Z,55.17
2023-04-20T11:21:19.216Z,55.64
2023-04-20T11:22:22.836Z,55.80
2023-04-20T11:23:25.927Z,56.07
2023-04-20T11:24:30.856Z,56.05
2023-04-20T11:25:32.662Z,55.86
2023-04-20T11:26:37.085Z,56.31
2023-04-20T11:27:41.063Z,56.13
2023-04-20T11:28:55.173Z,55.87
2023-04-20T11:29:59.861Z,56.24
2023-04-20T11:31:02.309Z,56.24
2023-04-20T11:32:07.360Z,56.72
2023-04-20T11:33:11.062Z,56.69
2023-04-20T11:34:18.914Z,56.94
2023-04-20T11:35:20.806Z,56.85
2023-04-20T11:36:24.833Z,57.16
2023-04-20T11:37:26.890Z,56.61
2023-04-20T11:38:31.399Z,56.88
2023-04-20T11:39:34.110Z,56.76
2023-04-20T11:40:37.176Z,57.34
2023-04-20T11:41:39.059Z,57.57
2023-04-20T11:42:42.042Z,57.11
2023-04-20T11:43:44.258Z,56.73
2023-04-20T11:44:47.082Z,57.23
2023-04-20T11:45:50.168Z,57.46
2023-04-20T11:46:54.269Z,56.93
2023-04-20T11:47:57.072Z,56.91
2023-04-20T11:49:02.195Z,57.08
2023-04-20T11:50:06.457Z,56.69
2023-04-20T11:51:09.401Z,56.49
2023-04-20T11:52:11.420Z,56.69
2023-04-20T11:53:14.806Z,57.05
2023-04-20T11:54:16.831Z,56.55
2023-04-20T11:55:20.185Z,56.72
2023-04-20T11:56:21.983Z,56.97
2023-04-20T11:57:25.670Z,56.93
2023-04-20T11:58:27.636Z,57.22
2023-04-20T11:59:30.615Z,56.60
2023-04-20T12:00:32.547Z,56.96
2023-04-20T12:01:35.896Z,56.76
2023-04-20T12:02:37.890Z,56.50
2023-04-20T12:03:40.973Z,55.88
2023-04-20T12:04:44.570Z,55.83
2023-04-20T12:05:47.626Z,55.72
2023-04-20T12:06:49.460Z,55.92
2023-04-20T12:07:52.317Z,55.53
2023-04-20T12:08:55.335Z,55.98
2023-04-20T12:09:57.127Z,55.51
2023-04-20T12:10:59.993Z,55.04
2023-04-20T12:12:02.540Z,54.54
2023-04-20T12:13:05.300Z,54.28
2023-04-20T12:14:09.770Z,54.60
2023-04-20T12:15:12.590Z,54.54
2023-04-20T12:16:15.438Z,54.46
2023-04-20T12:17:17.293Z,54.42
2023-04-20T12:18:20.499Z,53.97
2023-04-20T12:19:23.274Z,53.89
2023-04-20T12:20:26.541Z,53.19
2023-04-20T12:21:29.333Z,52.78
2023-04-20T12:22:31.184Z,52.09
2023-04-20T12:23:34.194Z,52.21
2023-04-20T12:24:36.936Z,52.49
2023-04-20T12:25:38.871Z,52.48
2023-04-20T12:26:44.648Z,51.74
2023-04-20T12:27:48.147Z,51.62
2023-04-20T12:28:52.295Z,51.47
2023-04-20T12:29:54.226Z,51.55
2023-04-20T12:30:57.017Z,50.97
2023-04-20T12:31:59.123Z,50.76
2023-04-20T12:33:02.291Z,50.56
2023-04-20T12:34:04.332Z,50.25
2023-04-20T12:35:08.431Z,50.23
2023-04-20T12:36:11.680Z,49.96
2023-04-20T12:37:15.103Z,49.65
2023-04-20T12:38:17.978Z,48.84
2023-04-20T12:39:19.900Z,48.06
2023-04-20T12:40:22.982Z,47.68
2023-04-20T12:41:25.799Z,47.76
2023-04-20T12:42:28.419Z,47.37
2023-04-20T12:43:31.544Z,47.76
2023-04-20T12:44:33.369Z,48.12
2023-04-20T12:45:36.311Z,48.28
2023-04-20T12:46:38.155Z,48.93
2023-04-20T12:47:41.298Z,48.89
2023-04-20T12:48:45.201Z,49.21
2023-04-20T12:49:48.032Z,49.22
2023-04-20T12:50:50.803Z,49.23
2023-04-20T12:51:55.377Z,49.13
2023-04-20T12:52:58.504Z,48.91
2023-04-20T12:54:01.445Z,49.50
2023-04-20T12:55:03.499Z,49.58
2023-04-20T12:56:06.776Z,49.49
2023-04-20T12:57:08.549Z,49.79
2023-04-20T12:58:12.844Z,50.15
2023-04-20T12:59:15.845Z,50.25
2023-04-20T13:00:22.230Z,50.43
2023-04-20T13:01:25.233Z,49.89
2023-04-20T13:02:28.200Z,49.98
2023-04-20T13:03:30.508Z,49.80
2023-04-20T13:04:33.667Z,49.86
2023-04-20T13:05:36.459Z,49.70
2023-04-20T13:06:39.249Z,50.12
2023-04-20T13:07:42.506Z,50.09
2023-04-20T13:08:45.831Z,50.03
2023-04-20T13:09:48.673Z,49.87
2023-04-20T13:10:51.523Z,49.73
2023-04-20T13:11:53.372Z,49.24
2023-04-20T13:12:57.772Z,48.96
2023-04-20T13:14:01.176Z,48.76
2023-04-20T13:15:05.128Z,48.25
2023-04-20T13:16:07.117Z,48.28
2023-04-20T13:17:10.026Z,47.96
2023-04-20T13:18:13.546Z,47.97
2023-04-20T13:19:16.685Z,47.84
2023-04-20T13:20:18.695Z,48.35
2023-04-20T13:21:21.518Z,48.78
2023-04-20T13:22:23.346Z,48.34
2023-04-20T13:23:27.724Z,48.39
2023-04-20T13:24:29.696Z,47.74
2023-04-20T13:25:33.755Z,47.12
2023-04-20T13:26:36.394Z,46.74
2023-04-20T13:27:39.192Z,46.64
2023-04-20T13:28:41.107Z,46.16
2023-04-20T13:29:44.134Z,45.63
2023-04-20T13:30:45.995Z,45.71
2023-04-20T13:31:49.024Z,45.67
2023-04-20T13:32:51.174Z,45.71
2023-04-20T13:33:54.721Z,45.24
2023-04-20T13:34:56.709Z,44.95
2023-04-20T13:35:59.853Z,45.18
2023-04-20T13:37:03.475Z,45.20
2023-04-20T13:38:05.422Z,45.33
2023-04-20T13:39:10.791Z,44.44
2023-04-20T13:40:13.728Z,44.55